Millstone, West Virginia
Current Conditions -  °F | °C
As of 8:54 AM on Monday 20 Oct 2014 (Local Time) from KCRW Reporting Station
Haze Haze  
Wind Chill: 39°   Ceiling: 30000
Heat Index: 39°   Visibility: 4mi
Dew Point: 38°   Wind: 0mph
Humidity: 96%   Direction: NA
Pressure: 30.07"   Gusts: NA
Location:  38.8°N, 81.1°W
Report Text: KCRW 201254Z 00000KT 4SM BR FEW000 SCT080 BKN300 04/03 A3007 RMK AO2 SLP187 FG FEW000 T00390033
Loading
Personal Weather Stations






























Interactive Weather Map New forecast layout! Learn more

10-Day Weather Forecast

Advertisements
Track Severe Weather on mobile